createdAt,value
2018-01-16T00:01:24.620Z,46.13
2018-01-16T00:03:52.208Z,43.33
2018-01-16T00:06:19.790Z,42.58
2018-01-16T00:08:47.418Z,44.70
2018-01-16T00:11:15.026Z,44.87
2018-01-16T00:13:42.595Z,32.67
2018-01-16T00:16:10.236Z,51.63
2018-01-16T00:18:37.804Z,46.37
2018-01-16T00:21:05.517Z,46.40
2018-01-16T00:23:33.137Z,40.87
2018-01-16T00:26:00.900Z,42.10
2018-01-16T00:28:28.484Z,45.10
2018-01-16T00:30:56.173Z,33.40
2018-01-16T00:33:23.747Z,39.30
2018-01-16T00:35:51.488Z,40.93
2018-01-16T00:38:19.149Z,39.27
2018-01-16T00:40:46.885Z,44.83
2018-01-16T00:43:14.675Z,41.30
2018-01-16T00:45:42.297Z,52.37
2018-01-16T00:48:09.890Z,37.23
2018-01-16T00:50:37.471Z,41.70
2018-01-16T00:53:05.103Z,41.83
2018-01-16T00:55:33.003Z,33.67
2018-01-16T00:58:00.602Z,38.00
2018-01-16T01:00:28.316Z,46.60
2018-01-16T01:02:55.902Z,35.83
2018-01-16T01:05:23.484Z,38.47
2018-01-16T01:07:51.104Z,34.87
2018-01-16T01:10:18.696Z,38.07
2018-01-16T01:12:46.278Z,40.60
2018-01-16T01:15:14.083Z,41.30
2018-01-16T01:17:41.668Z,35.73
2018-01-16T01:20:09.245Z,36.00
2018-01-16T01:22:37.080Z,40.10
2018-01-16T01:25:04.741Z,38.40
2018-01-16T01:27:32.469Z,35.47
2018-01-16T01:30:00.270Z,38.40
2018-01-16T01:32:27.934Z,39.03
2018-01-16T01:34:55.585Z,41.50
2018-01-16T01:37:23.211Z,38.93
2018-01-16T01:39:50.792Z,40.97
2018-01-16T01:42:18.354Z,40.43
2018-01-16T01:44:45.968Z,31.77
2018-01-16T01:47:13.689Z,43.63
2018-01-16T01:49:41.266Z,45.07
2018-01-16T01:52:09.007Z,38.20
2018-01-16T01:54:36.688Z,45.43
2018-01-16T01:57:04.263Z,38.33
2018-01-16T01:59:31.867Z,44.20
2018-01-16T02:01:59.434Z,33.80
2018-01-16T02:04:27.118Z,43.20
2018-01-16T02:06:54.779Z,38.30
2018-01-16T02:09:22.354Z,36.37
2018-01-16T02:11:49.939Z,42.10
2018-01-16T02:14:17.577Z,36.50
2018-01-16T02:16:45.155Z,40.10
2018-01-16T02:19:12.739Z,42.17
2018-01-16T02:21:40.566Z,42.97
2018-01-16T02:24:08.215Z,47.33
2018-01-16T02:26:35.790Z,48.03
2018-01-16T02:29:03.666Z,32.80
2018-01-16T02:31:31.257Z,43.90
2018-01-16T02:33:59.072Z,42.03
2018-01-16T02:36:26.724Z,44.87
2018-01-16T02:38:54.308Z,38.23
2018-01-16T02:41:21.893Z,39.53
2018-01-16T02:43:49.711Z,39.30
2018-01-16T02:46:17.393Z,43.30
2018-01-16T02:48:45.053Z,35.37
2018-01-16T02:51:12.717Z,33.60
2018-01-16T02:53:40.286Z,32.73
2018-01-16T02:56:08.023Z,32.60
2018-01-16T02:58:35.667Z,35.17
2018-01-16T03:01:03.353Z,40.70
2018-01-16T03:03:30.925Z,33.80
2018-01-16T03:05:58.670Z,37.77
2018-01-16T03:08:26.255Z,37.67
2018-01-16T03:10:54.011Z,43.30
2018-01-16T03:13:21.628Z,43.50
2018-01-16T03:15:49.215Z,31.50
2018-01-16T03:18:16.787Z,28.67
2018-01-16T03:20:44.403Z,36.30
2018-01-16T03:23:12.110Z,34.67
2018-01-16T03:25:39.687Z,44.20
2018-01-16T03:28:07.308Z,38.30
2018-01-16T03:30:35.156Z,36.17
2018-01-16T03:33:02.768Z,39.80
2018-01-16T03:35:30.393Z,39.58
2018-01-16T03:37:58.076Z,35.83
2018-01-16T03:40:25.739Z,36.30
2018-01-16T03:42:53.347Z,33.40
2018-01-16T03:45:21.088Z,32.80
2018-01-16T03:47:48.689Z,29.73
2018-01-16T03:50:16.387Z,27.30
2018-01-16T03:52:44.052Z,34.47
2018-01-16T03:55:11.632Z,36.67
2018-01-16T03:57:39.248Z,32.13
2018-01-16T04:00:07.046Z,44.77
2018-01-16T04:02:34.628Z,32.00
2018-01-16T04:05:02.376Z,45.42
2018-01-16T04:07:29.956Z,34.57
2018-01-16T04:09:57.689Z,40.33
2018-01-16T04:12:25.353Z,37.50
2018-01-16T04:14:52.915Z,44.90
2018-01-16T04:17:20.690Z,41.37
2018-01-16T04:19:48.307Z,31.20
2018-01-16T04:22:15.887Z,42.63
2018-01-16T04:24:43.509Z,36.57
2018-01-16T04:27:11.334Z,33.40
2018-01-16T04:29:39.188Z,31.80
2018-01-16T04:32:06.776Z,40.73
2018-01-16T04:34:34.426Z,37.00
2018-01-16T04:37:01.997Z,35.97
2018-01-16T04:39:29.634Z,39.10
2018-01-16T04:41:57.505Z,37.87
2018-01-16T04:44:25.082Z,36.23
2018-01-16T04:46:52.655Z,28.73
2018-01-16T04:49:20.266Z,27.63
2018-01-16T04:51:47.844Z,34.10
2018-01-16T04:54:15.413Z,30.20
2018-01-16T04:56:43.027Z,34.50
2018-01-16T04:59:10.734Z,34.30
2018-01-16T05:01:38.312Z,39.70
2018-01-16T05:04:06.277Z,36.23
2018-01-16T05:06:33.862Z,34.83
2018-01-16T05:09:01.431Z,36.67
2018-01-16T05:11:29.239Z,28.17
2018-01-16T05:13:56.814Z,37.40
2018-01-16T05:16:24.574Z,33.37
2018-01-16T05:18:52.186Z,30.53
2018-01-16T05:21:20.039Z,30.10
2018-01-16T05:23:47.762Z,40.25
2018-01-16T05:26:15.550Z,46.60
2018-01-16T05:28:43.137Z,50.77
2018-01-16T05:31:10.833Z,52.03
2018-01-16T05:33:38.460Z,46.27
2018-01-16T05:36:06.114Z,60.97
2018-01-16T05:38:33.733Z,41.40
2018-01-16T05:41:01.350Z,45.30
2018-01-16T05:43:28.930Z,48.03
2018-01-16T05:45:56.730Z,49.33
2018-01-16T05:48:24.388Z,50.80
2018-01-16T05:50:52.055Z,38.60
2018-01-16T05:53:19.699Z,44.23
2018-01-16T05:55:47.310Z,48.43
2018-01-16T05:58:15.046Z,47.73
2018-01-16T06:00:42.686Z,43.83
2018-01-16T06:03:10.357Z,41.73
2018-01-16T06:05:37.961Z,39.37
2018-01-16T06:08:05.591Z,48.47
2018-01-16T06:10:33.338Z,38.70
2018-01-16T06:13:00.925Z,47.23
2018-01-16T06:15:28.672Z,51.47
2018-01-16T06:17:56.540Z,45.70
2018-01-16T06:20:24.127Z,40.77
2018-01-16T06:22:51.857Z,45.80
2018-01-16T06:25:19.487Z,42.17
2018-01-16T06:27:47.176Z,43.87
2018-01-16T06:30:15.127Z,40.80
2018-01-16T06:32:43.132Z,43.33
2018-01-16T06:35:10.711Z,38.20
2018-01-16T06:37:38.464Z,39.40
2018-01-16T06:40:06.494Z,42.50
2018-01-16T06:42:34.312Z,41.73
2018-01-16T06:45:02.126Z,32.60
2018-01-16T06:47:29.741Z,34.87
2018-01-16T06:49:57.384Z,45.33
2018-01-16T06:52:25.041Z,40.47
2018-01-16T06:54:52.703Z,32.80
2018-01-16T06:57:20.353Z,26.00
2018-01-16T06:59:47.957Z,29.30
2018-01-16T07:02:15.667Z,29.13
2018-01-16T07:04:43.532Z,32.13
2018-01-16T07:07:11.399Z,27.70
2018-01-16T07:09:39.069Z,31.40
2018-01-16T07:12:06.641Z,29.67
2018-01-16T07:14:34.403Z,40.27
2018-01-16T07:17:02.142Z,37.60
2018-01-16T07:19:29.774Z,29.43
2018-01-16T07:21:57.341Z,34.00
2018-01-16T07:24:25.011Z,34.20
2018-01-16T07:26:52.624Z,37.30
2018-01-16T07:29:20.236Z,42.27
2018-01-16T07:31:47.826Z,48.53
2018-01-16T07:34:15.508Z,65.70
2018-01-16T07:36:43.346Z,70.37
2018-01-16T07:39:11.088Z,73.90
2018-01-16T07:41:38.673Z,69.07
2018-01-16T07:44:06.256Z,65.43
2018-01-16T07:46:34.009Z,64.17
2018-01-16T07:49:01.685Z,54.30
2018-01-16T07:51:29.263Z,72.53
2018-01-16T07:53:57.188Z,65.23
2018-01-16T07:56:24.878Z,54.33
2018-01-16T07:58:52.444Z,64.47
2018-01-16T08:01:20.206Z,62.03
2018-01-16T08:03:48.031Z,53.00
2018-01-16T08:06:15.846Z,61.50
2018-01-16T08:08:43.597Z,64.60
2018-01-16T08:11:11.261Z,65.87
2018-01-16T08:13:39.096Z,60.07
2018-01-16T08:16:06.773Z,68.40
2018-01-16T08:18:34.397Z,55.53
2018-01-16T08:21:01.960Z,49.93
2018-01-16T08:23:29.766Z,47.50
2018-01-16T08:25:57.352Z,37.50
2018-01-16T08:28:25.097Z,53.67
2018-01-16T08:30:52.953Z,48.63
2018-01-16T08:33:20.628Z,34.47
2018-01-16T08:35:48.197Z,42.53
2018-01-16T08:38:16.111Z,33.97
2018-01-16T08:40:43.695Z,39.53
2018-01-16T08:43:12.356Z,30.27
2018-01-16T08:45:40.026Z,22.93
2018-01-16T08:48:07.604Z,29.77
2018-01-16T08:50:35.269Z,32.13
2018-01-16T08:53:02.981Z,56.83
2018-01-16T08:55:30.611Z,70.03
2018-01-16T08:57:58.178Z,60.97
2018-01-16T09:00:25.937Z,64.07
2018-01-16T09:02:53.804Z,51.97
2018-01-16T09:05:21.388Z,50.60
2018-01-16T09:07:49.010Z,44.30
2018-01-16T09:10:16.599Z,50.43
2018-01-16T09:12:44.240Z,40.17
2018-01-16T09:15:11.879Z,39.20
2018-01-16T09:17:39.572Z,39.23
2018-01-16T09:20:07.419Z,42.97
2018-01-16T09:22:35.064Z,40.13
2018-01-16T09:25:02.650Z,37.77
2018-01-16T09:27:30.245Z,44.47
2018-01-16T09:29:57.850Z,40.53
2018-01-16T09:32:25.440Z,40.43
2018-01-16T09:34:53.018Z,39.17
2018-01-16T09:37:20.745Z,36.60
2018-01-16T09:39:48.329Z,29.90
2018-01-16T09:42:15.988Z,33.43
2018-01-16T09:44:43.712Z,42.57
2018-01-16T09:47:11.507Z,39.10
2018-01-16T09:49:39.089Z,44.33
2018-01-16T09:52:06.846Z,51.07
2018-01-16T09:54:34.426Z,43.63
2018-01-16T09:57:02.013Z,50.77
2018-01-16T09:59:29.812Z,47.27
2018-01-16T10:01:57.387Z,55.93
2018-01-16T10:04:25.051Z,56.13
2018-01-16T10:06:52.669Z,127.93
2018-01-16T10:09:20.274Z,103.13
2018-01-16T10:11:47.849Z,55.80
2018-01-16T10:14:15.493Z,103.03
2018-01-16T10:16:43.229Z,65.13
2018-01-16T10:19:10.922Z,139.53
2018-01-16T10:21:38.569Z,72.67
2018-01-16T10:24:06.245Z,122.60
2018-01-16T10:26:34.104Z,83.90
2018-01-16T10:29:01.775Z,79.87
2018-01-16T10:31:29.360Z,84.00
2018-01-16T10:33:57.099Z,77.60
2018-01-16T10:36:24.836Z,55.00
2018-01-16T10:38:52.617Z,54.83
2018-01-16T10:41:20.298Z,56.43
2018-01-16T10:43:47.915Z,62.03
2018-01-16T10:46:15.491Z,103.43
2018-01-16T10:48:43.101Z,82.43
2018-01-16T10:51:10.926Z,48.90
2018-01-16T10:53:38.590Z,54.10
2018-01-16T10:56:06.260Z,58.57
2018-01-16T10:58:33.872Z,65.27
2018-01-16T11:01:01.583Z,74.60
2018-01-16T11:03:29.332Z,69.07
2018-01-16T11:05:56.936Z,72.50
2018-01-16T11:08:24.509Z,83.90
2018-01-16T11:10:52.222Z,77.10
2018-01-16T11:13:19.835Z,60.83
2018-01-16T11:15:47.413Z,52.43
2018-01-16T11:18:15.014Z,50.73
2018-01-16T11:20:42.616Z,66.50
2018-01-16T11:23:10.182Z,81.77
2018-01-16T11:25:37.800Z,70.53
2018-01-16T11:28:05.450Z,77.70
2018-01-16T11:30:33.111Z,104.83
2018-01-16T11:33:00.787Z,83.73
2018-01-16T11:35:28.511Z,110.73
2018-01-16T11:37:56.316Z,80.20
2018-01-16T11:40:23.978Z,68.40
2018-01-16T11:42:51.585Z,79.50
2018-01-16T11:45:19.507Z,72.13
2018-01-16T11:47:47.067Z,150.30
2018-01-16T11:50:14.712Z,156.57
2018-01-16T11:52:42.293Z,212.77
2018-01-16T11:55:10.094Z,98.67
2018-01-16T11:57:37.805Z,68.77
2018-01-16T12:00:05.420Z,67.73
2018-01-16T12:02:33.141Z,80.20
2018-01-16T12:05:00.829Z,62.37
2018-01-16T12:07:28.656Z,81.47
2018-01-16T12:09:56.335Z,83.23
2018-01-16T12:12:23.976Z,79.60
2018-01-16T12:14:51.588Z,83.43
2018-01-16T12:17:19.315Z,91.23
2018-01-16T12:19:46.954Z,79.83
2018-01-16T12:22:14.593Z,84.50
2018-01-16T12:24:42.299Z,84.23
2018-01-16T12:27:09.904Z,74.00
2018-01-16T12:29:37.484Z,88.97
2018-01-16T12:32:05.089Z,80.40
2018-01-16T12:34:32.705Z,79.20
2018-01-16T12:37:00.415Z,71.70
2018-01-16T12:39:28.124Z,72.53
2018-01-16T12:41:55.929Z,78.17
2018-01-16T12:44:23.588Z,82.13
2018-01-16T12:46:51.217Z,81.00
2018-01-16T12:49:18.827Z,79.67
2018-01-16T12:51:46.402Z,75.47
2018-01-16T12:54:14.047Z,87.33
2018-01-16T12:56:41.713Z,82.77
2018-01-16T12:59:09.289Z,88.23
2018-01-16T13:01:39.050Z,89.33
2018-01-16T13:04:08.364Z,84.57
2018-01-16T13:06:36.039Z,77.70
2018-01-16T13:09:03.912Z,88.73
2018-01-16T13:11:31.522Z,75.47
2018-01-16T13:13:59.327Z,78.93
2018-01-16T13:16:27.094Z,85.50
2018-01-16T13:18:54.764Z,78.83
2018-01-16T13:21:22.431Z,80.83
2018-01-16T13:23:50.013Z,80.50
2018-01-16T13:26:17.617Z,85.13
2018-01-16T13:28:45.192Z,81.87
2018-01-16T13:31:12.808Z,65.87
2018-01-16T13:33:40.437Z,61.53
2018-01-16T13:36:08.042Z,56.50
2018-01-16T13:38:35.849Z,64.97
2018-01-16T13:41:03.478Z,61.77
2018-01-16T13:43:31.051Z,51.90
2018-01-16T13:45:58.647Z,57.80
2018-01-16T13:48:26.267Z,59.90
2018-01-16T13:50:53.883Z,46.10
2018-01-16T13:53:21.484Z,54.70
2018-01-16T13:55:49.109Z,50.93
2018-01-16T13:58:16.677Z,59.07
2018-01-16T14:00:44.257Z,55.50
2018-01-16T14:03:11.852Z,50.33
2018-01-16T14:05:39.429Z,50.37
2018-01-16T14:08:07.013Z,51.23
2018-01-16T14:10:34.618Z,54.20
2018-01-16T14:13:02.202Z,53.27
2018-01-16T14:15:29.769Z,40.73
2018-01-16T14:17:57.371Z,53.97
2018-01-16T14:20:24.954Z,43.00
2018-01-16T14:22:52.528Z,65.53
2018-01-16T14:25:20.127Z,48.80
2018-01-16T14:27:47.696Z,36.33
2018-01-16T14:30:15.286Z,44.87
2018-01-16T14:32:42.906Z,51.93
2018-01-16T14:35:10.490Z,57.40
2018-01-16T14:37:38.097Z,58.60
2018-01-16T14:40:05.694Z,50.27
2018-01-16T14:42:33.275Z,60.27
2018-01-16T14:45:00.843Z,49.40
2018-01-16T14:47:28.460Z,55.97
2018-01-16T14:49:56.037Z,74.67
2018-01-16T14:52:23.613Z,69.87
2018-01-16T14:54:51.218Z,64.67
2018-01-16T14:57:18.783Z,64.90
2018-01-16T14:59:46.357Z,73.50
2018-01-16T15:02:13.970Z,70.90
2018-01-16T15:04:41.561Z,67.20
2018-01-16T15:07:09.141Z,82.47
2018-01-16T15:09:36.765Z,72.97
2018-01-16T15:12:04.368Z,73.93
2018-01-16T15:14:31.940Z,78.00
2018-01-16T15:16:59.549Z,73.57
2018-01-16T15:19:27.133Z,88.70
2018-01-16T15:21:54.727Z,204.50
2018-01-16T15:24:22.327Z,93.23
2018-01-16T15:26:49.912Z,77.47
2018-01-16T15:29:17.493Z,108.23
2018-01-16T15:31:45.108Z,260.30
2018-01-16T15:34:12.687Z,84.17
2018-01-16T15:36:42.654Z,107.93
2018-01-16T15:39:10.403Z,148.77
2018-01-16T15:41:38.025Z,93.63
2018-01-16T15:44:05.600Z,67.37
2018-01-16T15:46:33.228Z,93.00
2018-01-16T15:49:00.796Z,82.43
2018-01-16T15:51:28.388Z,92.97
2018-01-16T15:53:56.005Z,104.43
2018-01-16T15:56:23.593Z,106.70
2018-01-16T15:58:51.178Z,107.13
2018-01-16T16:01:18.821Z,91.97
2018-01-16T16:03:46.450Z,88.97
2018-01-16T16:06:14.041Z,100.83
2018-01-16T16:08:41.824Z,151.23
2018-01-16T16:11:09.414Z,128.10
2018-01-16T16:13:37.006Z,187.80
2018-01-16T16:16:04.628Z,133.43
2018-01-16T16:18:32.213Z,123.77
2018-01-16T16:20:59.794Z,123.87
2018-01-16T16:23:27.423Z,165.50
2018-01-16T16:25:55.018Z,166.80
2018-01-16T16:28:22.595Z,174.13
2018-01-16T16:30:50.274Z,127.80
2018-01-16T16:33:17.845Z,97.60
2018-01-16T16:35:45.441Z,100.03
2018-01-16T16:38:13.070Z,117.50
2018-01-16T16:40:40.641Z,121.23
2018-01-16T16:43:08.234Z,128.77
2018-01-16T16:45:35.843Z,123.93
2018-01-16T16:48:03.415Z,104.90
2018-01-16T16:50:30.990Z,94.37
2018-01-16T16:52:58.624Z,86.17
2018-01-16T16:55:26.186Z,77.30
2018-01-16T16:57:53.751Z,91.43
2018-01-16T17:00:21.377Z,87.30
2018-01-16T17:02:48.947Z,70.33
2018-01-16T17:05:16.490Z,79.13
2018-01-16T17:07:44.077Z,71.60
2018-01-16T17:10:11.649Z,83.03
2018-01-16T17:12:39.226Z,72.20
2018-01-16T17:15:06.843Z,83.27
2018-01-16T17:17:34.454Z,69.30
2018-01-16T17:20:02.061Z,64.67
2018-01-16T17:22:29.673Z,89.13
2018-01-16T17:24:57.263Z,64.13
2018-01-16T17:27:24.825Z,127.90
2018-01-16T17:29:52.429Z,128.03
2018-01-16T17:32:20.016Z,118.77
2018-01-16T17:34:47.605Z,129.57
2018-01-16T17:37:15.210Z,171.20
2018-01-16T17:39:42.772Z,188.73
2018-01-16T17:42:10.337Z,173.00
2018-01-16T17:44:38.033Z,161.33
2018-01-16T17:47:05.606Z,120.33
2018-01-16T17:49:33.185Z,117.10
2018-01-16T17:52:00.798Z,101.77
2018-01-16T17:54:28.354Z,105.30
2018-01-16T17:56:55.918Z,114.53
2018-01-16T17:59:23.518Z,132.03
2018-01-16T18:01:51.112Z,128.23
2018-01-16T18:04:18.692Z,97.23
2018-01-16T18:06:46.302Z,114.57
2018-01-16T18:09:13.890Z,102.93
2018-01-16T18:11:41.659Z,114.23
2018-01-16T18:14:09.258Z,88.27
2018-01-16T18:16:36.826Z,100.33
2018-01-16T18:19:04.492Z,91.77
2018-01-16T18:21:32.094Z,83.60
2018-01-16T18:23:59.636Z,87.50
2018-01-16T18:26:27.213Z,87.20
2018-01-16T18:28:54.830Z,89.30
2018-01-16T18:31:22.397Z,76.33
2018-01-16T18:33:50.178Z,83.83
2018-01-16T18:36:17.796Z,88.20
2018-01-16T18:38:45.369Z,80.60
2018-01-16T18:41:12.939Z,87.20
2018-01-16T18:43:40.558Z,92.13
2018-01-16T18:46:08.118Z,92.93
2018-01-16T18:48:35.675Z,79.33
2018-01-16T18:51:03.939Z,105.40
2018-01-16T18:53:31.496Z,98.80
2018-01-16T18:55:59.074Z,122.30
2018-01-16T18:58:26.653Z,149.93
2018-01-16T19:00:54.207Z,151.47
2018-01-16T19:03:21.765Z,152.80
2018-01-16T19:05:49.385Z,144.77
2018-01-16T19:08:16.945Z,138.70
2018-01-16T19:10:44.514Z,126.53
2018-01-16T19:13:12.135Z,88.87
2018-01-16T19:15:39.724Z,113.57
2018-01-16T19:18:07.282Z,112.90
2018-01-16T19:20:34.896Z,104.50
2018-01-16T19:23:02.473Z,128.90
2018-01-16T19:25:30.041Z,149.50
2018-01-16T19:27:57.635Z,146.90
2018-01-16T19:30:25.210Z,140.40
2018-01-16T19:32:52.764Z,158.13
2018-01-16T19:35:20.409Z,132.10
2018-01-16T19:37:47.973Z,136.87
2018-01-16T19:40:15.538Z,139.47
2018-01-16T19:42:43.137Z,154.20
2018-01-16T19:45:10.757Z,147.40
2018-01-16T19:47:38.309Z,157.83
2018-01-16T19:50:05.903Z,141.73
2018-01-16T19:52:33.466Z,159.83
2018-01-16T19:55:01.040Z,144.27
2018-01-16T19:57:28.731Z,144.30
2018-01-16T19:59:56.310Z,156.23
2018-01-16T20:02:23.877Z,136.00
2018-01-16T20:04:52.630Z,149.03
2018-01-16T20:07:20.188Z,131.03
2018-01-16T20:09:47.752Z,149.97
2018-01-16T20:12:15.359Z,128.27
2018-01-16T20:14:43.878Z,128.17
2018-01-16T20:17:11.436Z,129.47
2018-01-16T20:19:39.036Z,122.87
2018-01-16T20:22:06.600Z,118.37
2018-01-16T20:24:34.165Z,122.23
2018-01-16T20:27:01.811Z,112.73
2018-01-16T20:29:29.381Z,127.35
2018-01-16T20:31:56.953Z,132.00
2018-01-16T20:34:24.580Z,149.10
2018-01-16T20:36:52.172Z,164.60
2018-01-16T20:39:19.783Z,233.80
2018-01-16T20:41:47.393Z,249.53
2018-01-16T20:44:14.968Z,232.93
2018-01-16T20:46:42.607Z,216.20
2018-01-16T20:49:10.412Z,208.57
2018-01-16T20:51:38.007Z,158.03
2018-01-16T20:54:05.561Z,178.10
2018-01-16T20:56:33.161Z,180.73
2018-01-16T20:59:00.730Z,172.73
2018-01-16T21:01:28.283Z,170.53
2018-01-16T21:03:56.001Z,151.33
2018-01-16T21:06:23.657Z,160.07
2018-01-16T21:08:51.247Z,148.60
2018-01-16T21:11:18.936Z,147.10
2018-01-16T21:13:46.517Z,155.53
2018-01-16T21:16:14.107Z,150.00
2018-01-16T21:18:41.706Z,157.20
2018-01-16T21:21:09.328Z,137.17
2018-01-16T21:23:37.049Z,126.30
2018-01-16T21:26:04.668Z,136.05
2018-01-16T21:28:32.233Z,118.97
2018-01-16T21:30:59.800Z,112.37
2018-01-16T21:33:27.489Z,111.53
2018-01-16T21:35:55.130Z,119.60
2018-01-16T21:38:22.800Z,100.33
2018-01-16T21:40:50.431Z,103.53
2018-01-16T21:43:17.997Z,115.22
2018-01-16T21:45:45.577Z,173.73
2018-01-16T21:48:13.230Z,249.47
2018-01-16T21:50:40.811Z,224.50
2018-01-16T21:53:08.433Z,235.45
2018-01-16T21:55:36.029Z,195.10
2018-01-16T21:58:03.615Z,152.17
2018-01-16T22:00:31.231Z,178.45
2018-01-16T22:02:58.835Z,185.00
2018-01-16T22:05:26.414Z,170.77
2018-01-16T22:07:54.149Z,153.17
2018-01-16T22:10:21.793Z,125.12
2018-01-16T22:12:49.520Z,131.70
2018-01-16T22:15:17.183Z,128.30
2018-01-16T22:17:44.788Z,119.83
2018-01-16T22:20:12.380Z,122.25
2018-01-16T22:22:39.952Z,162.53
2018-01-16T22:25:07.554Z,171.30
2018-01-16T22:27:35.231Z,175.03
2018-01-16T22:30:02.820Z,191.13
2018-01-16T22:32:30.491Z,170.90
2018-01-16T22:34:58.066Z,110.97
2018-01-16T22:37:25.623Z,110.07
2018-01-16T22:39:53.333Z,93.87
2018-01-16T22:42:20.903Z,87.77
2018-01-16T22:44:48.463Z,96.10
2018-01-16T22:47:16.056Z,83.20
2018-01-16T22:49:43.603Z,92.93
2018-01-16T22:52:11.188Z,96.60
2018-01-16T22:54:38.862Z,78.60
2018-01-16T22:57:06.470Z,88.23
2018-01-16T22:59:34.039Z,93.67
2018-01-16T23:02:01.642Z,85.55
2018-01-16T23:04:29.241Z,80.20
2018-01-16T23:06:56.807Z,81.47
2018-01-16T23:09:24.447Z,85.87
2018-01-16T23:11:52.121Z,78.23
2018-01-16T23:14:19.679Z,92.33
2018-01-16T23:16:47.270Z,92.80
2018-01-16T23:19:14.835Z,86.60
2018-01-16T23:21:42.390Z,76.70
2018-01-16T23:24:09.993Z,81.80
2018-01-16T23:26:37.577Z,79.40
2018-01-16T23:29:05.139Z,77.67
2018-01-16T23:31:32.761Z,63.80
2018-01-16T23:34:00.330Z,74.83
2018-01-16T23:36:27.964Z,70.37
2018-01-16T23:38:55.581Z,77.97
2018-01-16T23:41:23.146Z,72.83
2018-01-16T23:43:50.698Z,76.03
2018-01-16T23:46:18.287Z,68.90
2018-01-16T23:48:45.882Z,71.60
2018-01-16T23:51:13.504Z,73.40
2018-01-16T23:53:41.126Z,69.80
2018-01-16T23:56:08.745Z,80.43
2018-01-16T23:58:36.318Z,74.50
